Time;durP1;ratioP1;P1;durP2;ratioP2;P2;SDS_P1;SDS_P2;PMS_P1;PMS_P2;Temp;Humidity;BMP_temperature;BMP_pressure;BME280_temperature;BME280_humidity;BME280_pressure;Samples;Min_cycle;Max_cycle;Signal;HPM_P1;HPM_P2
2022/07/15 00:00:29;;;;;;;0.00;0.00;;;13.50;99.90;;;;;;5033106;28;20062;-82
2022/07/15 00:02:54;;;;;;;0.00;0.00;;;13.50;99.90;;;;;;5028495;28;20391;-82
2022/07/15 00:05:20;;;;;;;0.20;0.20;;;13.60;99.90;;;;;;5025295;28;20040;-82
2022/07/15 00:07:46;;;;;;;0.20;0.20;;;13.60;99.90;;;;;;5031972;28;20052;-82
2022/07/15 00:10:15;;;;;;;0.20;0.20;;;13.50;99.90;;;;;;5030326;28;20029;-82
2022/07/15 00:12:46;;;;;;;0.00;0.00;;;13.40;99.90;;;;;;5035422;28;20087;-82
2022/07/15 00:15:12;;;;;;;0.10;0.10;;;13.40;99.90;;;;;;5026957;28;20033;-82
2022/07/15 00:17:40;;;;;;;0.10;0.10;;;13.40;99.90;;;;;;5015652;28;20045;-79
2022/07/15 00:20:06;;;;;;;0.03;0.03;;;13.40;99.90;;;;;;5025483;28;20037;-79
2022/07/15 00:22:32;;;;;;;0.10;0.10;;;13.40;99.90;;;;;;5022151;28;20060;-78
2022/07/15 00:24:58;;;;;;;0.32;0.25;;;13.30;99.90;;;;;;5053593;28;20037;-79
2022/07/15 00:27:24;;;;;;;0.10;0.10;;;13.30;99.90;;;;;;5030380;28;20045;-79
2022/07/15 00:29:50;;;;;;;0.00;0.00;;;13.30;99.90;;;;;;5021907;28;20449;-79
2022/07/15 00:32:16;;;;;;;0.00;0.00;;;13.30;99.90;;;;;;5038757;28;20048;-79
2022/07/15 00:34:42;;;;;;;0.45;0.20;;;13.30;99.90;;;;;;5044408;28;20041;-82
2022/07/15 00:37:08;;;;;;;0.00;0.00;;;13.20;99.90;;;;;;5029739;28;20040;-81
2022/07/15 00:39:34;;;;;;;0.00;0.00;;;13.20;99.90;;;;;;5051168;28;20033;-81
2022/07/15 00:42:00;;;;;;;0.00;0.00;;;13.20;99.90;;;;;;5022563;28;20033;-81
2022/07/15 00:44:26;;;;;;;0.00;0.00;;;13.20;99.90;;;;;;5054540;28;20052;-81
2022/07/15 00:46:53;;;;;;;0.00;0.00;;;13.10;99.90;;;;;;5020720;28;20170;-81
2022/07/15 00:49:19;;;;;;;0.10;0.10;;;13.10;99.90;;;;;;5036998;28;20044;-81
2022/07/15 00:51:49;;;;;;;0.00;0.00;;;13.10;99.90;;;;;;5018420;28;20033;-79
2022/07/15 00:54:16;;;;;;;0.03;0.03;;;13.10;99.90;;;;;;5035795;28;20048;-78
2022/07/15 00:56:54;;;;;;;0.10;0.10;;;13.10;99.90;;;;;;5037449;28;20036;-79
2022/07/15 00:59:22;;;;;;;2.75;1.35;;;13.10;99.90;;;;;;5028405;28;20071;-79
2022/07/15 01:01:49;;;;;;;0.10;0.10;;;13.00;99.90;;;;;;5034066;28;20041;-79
2022/07/15 01:04:17;;;;;;;0.10;0.10;;;13.00;99.90;;;;;;5018809;28;20482;-79
2022/07/15 01:06:43;;;;;;;0.10;0.10;;;13.00;99.90;;;;;;5032672;28;20402;-80
2022/07/15 01:09:09;;;;;;;0.08;0.08;;;12.90;99.90;;;;;;5036220;28;20044;-80
2022/07/15 01:11:36;;;;;;;0.00;0.00;;;12.90;99.90;;;;;;5035510;28;20049;-80
2022/07/15 01:14:02;;;;;;;0.00;0.00;;;12.70;99.90;;;;;;5003711;28;20041;-80
2022/07/15 01:16:28;;;;;;;0.10;0.10;;;12.60;99.90;;;;;;5036964;28;20040;-80
2022/07/15 01:18:54;;;;;;;0.73;0.25;;;12.50;99.90;;;;;;5037042;28;20048;-80
2022/07/15 01:21:20;;;;;;;0.20;0.15;;;12.30;99.90;;;;;;5036423;28;20041;-80
2022/07/15 01:23:46;;;;;;;0.00;0.00;;;12.20;99.90;;;;;;5037554;28;20052;-81
2022/07/15 01:26:12;;;;;;;0.30;0.28;;;12.10;99.90;;;;;;5037439;28;20044;-82
2022/07/15 01:28:42;;;;;;;4.78;0.30;;;12.00;99.90;;;;;;5036911;28;20336;-81
2022/07/15 01:31:08;;;;;;;0.00;0.00;;;12.00;99.90;;;;;;5020385;28;20056;-81
2022/07/15 01:33:35;;;;;;;6.88;1.08;;;12.00;99.90;;;;;;5053170;28;20509;-81
2022/07/15 01:36:01;;;;;;;0.28;0.28;;;12.00;99.90;;;;;;5004718;28;20494;-81
2022/07/15 01:38:28;;;;;;;0.00;0.00;;;12.00;99.90;;;;;;5020885;28;20047;-81
2022/07/15 01:40:54;;;;;;;0.00;0.00;;;11.90;99.90;;;;;;5034922;28;20041;-79
2022/07/15 01:43:20;;;;;;;0.30;0.30;;;11.80;99.90;;;;;;5020891;28;20036;-79
2022/07/15 01:45:46;;;;;;;0.00;0.00;;;11.70;99.90;;;;;;5037565;28;20170;-79
2022/07/15 01:50:59;;;;;;;0.35;0.20;;;11.50;99.90;;;;;;5035523;28;20475;-79
2022/07/15 01:53:26;;;;;;;0.13;0.13;;;11.30;99.90;;;;;;5004314;28;20051;-79
2022/07/15 01:55:53;;;;;;;0.80;0.50;;;11.30;99.90;;;;;;5037213;28;20049;-79
2022/07/15 01:58:18;;;;;;;0.00;0.00;;;11.10;99.90;;;;;;5036625;28;20490;-79
2022/07/15 02:00:45;;;;;;;0.10;0.10;;;11.00;99.90;;;;;;5033358;28;20036;-79
2022/07/15 02:03:10;;;;;;;0.10;0.10;;;10.90;99.90;;;;;;5036388;28;20040;-79
2022/07/15 02:05:36;;;;;;;0.00;0.00;;;10.80;99.90;;;;;;5037074;28;20186;-79
2022/07/15 02:08:02;;;;;;;0.10;0.10;;;10.70;99.90;;;;;;5035815;28;20403;-79
2022/07/15 02:10:39;;;;;;;0.00;0.00;;;10.60;99.90;;;;;;5036992;28;20041;-79
2022/07/15 02:13:12;;;;;;;0.10;0.10;;;10.60;99.90;;;;;;5053465;28;20081;-82
2022/07/15 02:15:39;;;;;;;0.30;0.30;;;10.50;99.90;;;;;;5053246;28;20037;-82
2022/07/15 02:18:06;;;;;;;0.10;0.10;;;10.40;99.90;;;;;;5034214;28;20037;-82
2022/07/15 02:20:32;;;;;;;0.10;0.10;;;10.30;99.90;;;;;;5020768;28;20029;-82
2022/07/15 02:22:58;;;;;;;0.00;0.00;;;10.20;99.90;;;;;;5036998;28;20039;-82
2022/07/15 02:25:30;;;;;;;0.00;0.00;;;10.10;99.90;;;;;;5036602;28;20483;-82
2022/07/15 02:27:57;;;;;;;0.10;0.10;;;10.10;99.90;;;;;;5035615;28;20044;-82
2022/07/15 02:30:29;;;;;;;0.00;0.00;;;10.00;99.90;;;;;;5036443;28;20433;-79
2022/07/15 02:32:55;;;;;;;0.10;0.10;;;10.00;99.90;;;;;;5020123;28;20301;-79
2022/07/15 02:35:21;;;;;;;0.00;0.00;;;10.00;99.90;;;;;;5036607;28;20037;-78
2022/07/15 02:37:47;;;;;;;0.00;0.00;;;9.90;99.90;;;;;;5036648;28;20573;-79
2022/07/15 02:40:14;;;;;;;0.05;0.05;;;;;;;;;;5034007;28;20124;-79
2022/07/15 02:42:45;;;;;;;0.00;0.00;;;9.80;99.90;;;;;;5036362;28;20041;-79
2022/07/15 02:45:11;;;;;;;0.10;0.10;;;9.70;99.90;;;;;;5035066;28;20041;-79
2022/07/15 02:47:37;;;;;;;0.08;0.08;;;9.80;99.90;;;;;;5036483;28;20136;-82
2022/07/15 02:50:03;;;;;;;0.10;0.10;;;9.80;99.90;;;;;;5051792;28;20036;-82
2022/07/15 02:52:29;;;;;;;0.00;0.00;;;9.80;99.90;;;;;;4987280;28;20052;-82
2022/07/15 02:54:54;;;;;;;0.08;0.08;;;9.90;99.90;;;;;;5036533;28;20056;-82
2022/07/15 02:57:20;;;;;;;0.00;0.00;;;9.90;99.90;;;;;;5019882;28;20588;-82
2022/07/15 02:59:46;;;;;;;0.00;0.00;;;9.90;99.90;;;;;;5035839;28;20471;-82
2022/07/15 03:02:11;;;;;;;0.10;0.10;;;9.90;99.90;;;;;;5033615;28;20063;-82
2022/07/15 03:04:37;;;;;;;0.00;0.00;;;9.90;99.90;;;;;;5036232;28;20402;-80
2022/07/15 03:07:03;;;;;;;0.00;0.00;;;9.80;99.90;;;;;;5035723;28;20041;-80
2022/07/15 03:09:29;;;;;;;0.00;0.00;;;9.80;99.90;;;;;;5035787;28;20048;-80
2022/07/15 03:11:55;;;;;;;0.00;0.00;;;9.90;99.90;;;;;;5036005;28;20387;-80
2022/07/15 03:14:20;;;;;;;0.00;0.00;;;9.80;99.90;;;;;;5015225;28;20029;-80
2022/07/15 03:16:46;;;;;;;0.00;0.00;;;9.70;99.90;;;;;;5041224;28;20046;-80
2022/07/15 03:19:12;;;;;;;0.10;0.10;;;9.60;99.90;;;;;;5034754;28;20041;-80
2022/07/15 03:21:38;;;;;;;0.20;0.20;;;9.60;99.90;;;;;;5019389;28;20045;-82
2022/07/15 03:24:04;;;;;;;0.00;0.00;;;9.60;99.90;;;;;;5007032;28;20041;-82
2022/07/15 03:26:29;;;;;;;0.00;0.00;;;9.80;99.90;;;;;;5014152;28;20036;-82
2022/07/15 03:28:57;;;;;;;0.00;0.00;;;10.80;99.90;;;;;;5049156;22;20137;-79
2022/07/15 03:31:23;;;;;;;0.00;0.00;;;10.00;99.90;;;;;;5052143;28;20369;-79
2022/07/15 03:33:49;;;;;;;0.00;0.00;;;9.90;99.90;;;;;;5024061;28;20056;-79
2022/07/15 03:36:14;;;;;;;0.10;0.10;;;9.70;99.90;;;;;;5050297;28;20071;-81
2022/07/15 03:38:40;;;;;;;0.35;0.35;;;9.80;99.90;;;;;;5035714;28;20044;-81
2022/07/15 03:41:06;;;;;;;0.10;0.10;;;9.80;99.90;;;;;;5051934;28;20052;-81
2022/07/15 03:43:31;;;;;;;0.00;0.00;;;9.90;99.90;;;;;;5051990;28;20490;-81
2022/07/15 03:45:57;;;;;;;0.05;0.05;;;9.90;99.90;;;;;;5035692;28;20037;-81
2022/07/15 03:48:23;;;;;;;0.10;0.10;;;10.00;99.90;;;;;;5051905;28;20113;-81
2022/07/15 03:50:48;;;;;;;0.10;0.10;;;9.90;99.90;;;;;;5018272;28;20045;-81
2022/07/15 03:53:14;;;;;;;0.25;0.13;;;10.00;99.90;;;;;;5035390;28;20104;-79
2022/07/15 03:55:40;;;;;;;0.65;0.35;;;10.00;99.90;;;;;;5053206;28;20037;-79
2022/07/15 03:58:06;;;;;;;0.00;0.00;;;10.00;99.90;;;;;;5039168;28;20041;-79
2022/07/15 04:00:32;;;;;;;0.00;0.00;;;10.10;99.90;;;;;;5037399;28;20029;-79
2022/07/15 04:02:57;;;;;;;0.08;0.08;;;10.20;99.90;;;;;;5039481;28;20039;-79
2022/07/15 04:05:23;;;;;;;0.00;0.00;;;10.40;99.90;;;;;;5055524;28;20379;-78
2022/07/15 04:07:49;;;;;;;0.00;0.00;;;10.70;99.90;;;;;;5055934;28;20098;-78
2022/07/15 04:10:15;;;;;;;0.00;0.00;;;10.70;99.90;;;;;;5055901;28;20041;-80
2022/07/15 04:12:41;;;;;;;0.10;0.10;;;10.90;99.90;;;;;;5053616;28;20041;-80
2022/07/15 04:15:08;;;;;;;0.00;0.00;;;10.90;99.90;;;;;;5055570;28;20041;-80
2022/07/15 04:17:34;;;;;;;0.00;0.00;;;11.10;99.90;;;;;;5039058;28;20548;-80
2022/07/15 04:20:00;;;;;;;0.00;0.00;;;11.10;99.90;;;;;;5039228;28;20037;-80
2022/07/15 04:22:26;;;;;;;0.00;0.00;;;11.20;99.90;;;;;;5053978;28;20498;-80
2022/07/15 04:24:51;;;;;;;0.00;0.00;;;11.30;99.90;;;;;;5055234;28;20128;-80
2022/07/15 04:27:18;;;;;;;0.00;0.00;;;11.40;99.90;;;;;;5038741;28;20414;-82
2022/07/15 04:29:44;;;;;;;0.00;0.00;;;11.50;99.90;;;;;;5054918;28;20068;-82
2022/07/15 04:32:09;;;;;;;0.10;0.10;;;11.50;99.90;;;;;;5021527;28;20045;-82
2022/07/15 04:34:35;;;;;;;0.00;0.00;;;11.50;99.90;;;;;;5038713;28;20083;-82
2022/07/15 04:37:02;;;;;;;0.10;0.10;;;11.50;99.90;;;;;;5055378;28;20041;-82
2022/07/15 04:39:27;;;;;;;0.00;0.00;;;11.50;99.90;;;;;;5038866;28;20473;-82
2022/07/15 04:41:53;;;;;;;0.10;0.10;;;11.50;99.90;;;;;;5054978;28;20131;-83
2022/07/15 04:44:19;;;;;;;0.10;0.10;;;11.60;99.90;;;;;;5051304;28;20141;-81
2022/07/15 04:46:45;;;;;;;0.00;0.00;;;;;;;;;;5055245;28;20513;-81
2022/07/15 04:51:55;;;;;;;0.00;0.00;;;12.60;99.90;;;;;;5054777;28;20391;-81
2022/07/15 04:54:21;;;;;;;0.00;0.00;;;;;;;;;;5050110;28;20044;-82
2022/07/15 04:56:47;;;;;;;0.10;0.10;;;12.90;99.90;;;;;;5053811;28;20044;-82
2022/07/15 04:59:12;;;;;;;0.00;0.00;;;13.00;99.90;;;;;;5051631;28;20040;-81
2022/07/15 05:01:38;;;;;;;0.00;0.00;;;13.10;99.90;;;;;;5026587;28;20124;-81
2022/07/15 05:04:04;;;;;;;0.00;0.00;;;13.20;99.90;;;;;;5030146;28;20029;-82
2022/07/15 05:06:30;;;;;;;0.00;0.00;;;13.30;99.90;;;;;;5049389;28;20095;-81
2022/07/15 05:08:55;;;;;;;0.00;0.00;;;13.40;99.90;;;;;;5010718;28;20033;-82
2022/07/15 05:11:21;;;;;;;0.00;0.00;;;13.50;99.90;;;;;;5036895;28;20068;-81
2022/07/15 05:13:47;;;;;;;0.00;0.00;;;13.60;99.90;;;;;;5045768;28;20086;-82
2022/07/15 05:16:12;;;;;;;0.10;0.10;;;13.70;99.90;;;;;;5026248;28;20128;-82
2022/07/15 05:18:38;;;;;;;0.00;0.00;;;14.00;99.90;;;;;;5050159;28;20038;-82
2022/07/15 05:21:04;;;;;;;0.05;0.05;;;14.00;99.90;;;;;;5032529;28;20111;-82
2022/07/15 05:23:30;;;;;;;0.10;0.10;;;14.10;99.90;;;;;;5034418;28;20036;-82
2022/07/15 05:25:55;;;;;;;0.00;0.00;;;14.40;99.90;;;;;;5053548;28;20044;-82
2022/07/15 05:28:21;;;;;;;0.00;0.00;;;14.40;99.90;;;;;;5036969;28;20048;-82
2022/07/15 05:30:47;;;;;;;0.08;0.08;;;14.50;99.90;;;;;;5053906;28;20057;-82
2022/07/15 05:33:16;;;;;;;0.10;0.10;;;14.60;99.90;;;;;;5053742;28;20493;-80
2022/07/15 05:35:42;;;;;;;0.10;0.10;;;14.70;99.90;;;;;;5052589;28;20123;-80
2022/07/15 05:38:08;;;;;;;0.00;0.00;;;15.00;99.90;;;;;;5054020;28;20124;-80
2022/07/15 05:40:34;;;;;;;0.10;0.10;;;15.50;99.90;;;;;;5053818;28;20044;-80
2022/07/15 05:42:59;;;;;;;0.13;0.13;;;15.90;99.90;;;;;;5053282;28;20033;-80
2022/07/15 05:45:25;;;;;;;0.00;0.00;;;16.20;99.90;;;;;;5047037;28;20124;-80
2022/07/15 05:47:51;;;;;;;0.00;0.00;;;18.00;99.90;;;;;;5025946;28;20043;-80
2022/07/15 05:50:17;;;;;;;0.00;0.00;;;18.70;99.90;;;;;;5069603;28;20035;-82
2022/07/15 05:52:43;;;;;;;0.20;0.17;;;18.70;99.90;;;;;;5045805;28;20091;-82
2022/07/15 05:55:10;;;;;;;0.10;0.10;;;19.20;99.90;;;;;;5052901;28;20041;-82
2022/07/15 05:57:35;;;;;;;0.00;0.00;;;19.20;99.90;;;;;;5050361;28;20043;-82
2022/07/15 06:00:02;;;;;;;0.10;0.10;;;18.90;99.90;;;;;;5019739;28;20124;-82
2022/07/15 06:02:28;;;;;;;0.10;0.10;;;18.50;99.90;;;;;;5037269;28;20463;-82
2022/07/15 06:04:54;;;;;;;0.00;0.00;;;18.20;99.90;;;;;;5052985;28;20522;-82
2022/07/15 06:07:20;;;;;;;0.03;0.03;;;18.80;99.90;;;;;;5052841;28;20076;-83
2022/07/15 06:09:50;;;;;;;0.00;0.00;;;20.20;99.90;;;;;;5052767;28;20376;-83
2022/07/15 06:12:16;;;;;;;0.00;0.00;;;20.60;99.90;;;;;;5053358;28;20049;-84
2022/07/15 06:14:42;;;;;;;0.00;0.00;;;20.50;99.90;;;;;;5052928;28;20379;-83
2022/07/15 06:17:07;;;;;;;1.38;0.20;;;20.20;99.90;;;;;;5035551;28;20037;-84
2022/07/15 06:19:33;;;;;;;0.10;0.10;;;21.00;99.90;;;;;;5047957;28;20025;-84
2022/07/15 06:21:59;;;;;;;0.00;0.00;;;21.20;99.90;;;;;;5025869;28;20436;-84
2022/07/15 06:24:25;;;;;;;0.00;0.00;;;;;;;;;;5043103;28;20071;-80
2022/07/15 06:26:51;;;;;;;0.00;0.00;;;22.40;99.90;;;;;;5025127;28;20064;-80
2022/07/15 06:29:17;;;;;;;0.20;0.20;;;22.50;99.90;;;;;;5047901;28;20049;-80
2022/07/15 06:31:43;;;;;;;0.00;0.00;;;24.20;95.60;;;;;;5050689;28;20501;-80
2022/07/15 06:34:09;;;;;;;0.10;0.10;;;24.30;95.60;;;;;;5034191;28;20056;-80
2022/07/15 06:36:35;;;;;;;0.98;0.17;;;25.20;95.20;;;;;;5036303;28;20032;-80
2022/07/15 06:39:01;;;;;;;0.03;0.03;;;25.60;92.60;;;;;;5052688;28;20471;-81
2022/07/15 06:41:26;;;;;;;0.13;0.13;;;26.30;91.70;;;;;;5035877;28;20387;-81
2022/07/15 06:43:52;;;;;;;0.35;0.35;;;26.60;91.60;;;;;;5035882;28;20036;-81
2022/07/15 06:46:18;;;;;;;2.65;0.82;;;26.90;90.60;;;;;;5019349;28;20094;-81
2022/07/15 06:48:43;;;;;;;0.00;0.00;;;27.10;89.00;;;;;;5035815;28;20095;-81
2022/07/15 06:51:09;;;;;;;0.28;0.28;;;27.40;89.80;;;;;;5051705;28;20441;-81
2022/07/15 06:53:36;;;;;;;0.10;0.10;;;27.40;88.40;;;;;;5052516;28;20044;-81
2022/07/15 06:56:01;;;;;;;0.00;0.00;;;27.60;87.10;;;;;;5052526;28;20044;-81
2022/07/15 06:58:27;;;;;;;0.20;0.20;;;27.70;85.00;;;;;;5052575;28;20040;-85
2022/07/15 07:00:53;;;;;;;0.13;0.13;;;26.80;86.70;;;;;;5034228;28;20064;-85
2022/07/15 07:03:19;;;;;;;0.00;0.00;;;26.20;83.70;;;;;;5036084;28;20086;-84
2022/07/15 07:05:44;;;;;;;0.77;0.77;;;23.80;88.30;;;;;;5052328;28;20421;-85
2022/07/15 07:08:10;;;;;;;0.10;0.10;;;22.80;90.00;;;;;;5035493;28;20091;-84
2022/07/15 07:10:36;;;;;;;0.00;0.00;;;22.50;90.30;;;;;;5052333;28;20045;-84
2022/07/15 07:13:01;;;;;;;0.03;0.03;;;23.90;89.90;;;;;;5052176;28;20048;-84
2022/07/15 07:15:27;;;;;;;0.00;0.00;;;24.00;90.00;;;;;;5051892;28;20037;-84
2022/07/15 07:17:53;;;;;;;0.10;0.10;;;25.30;88.10;;;;;;5033859;28;20032;-84
2022/07/15 07:20:19;;;;;;;0.05;0.05;;;27.00;86.20;;;;;;5035333;28;20048;-83
2022/07/15 07:22:45;;;;;;;0.10;0.10;;;27.10;85.60;;;;;;5052079;28;20876;-84
2022/07/15 07:25:11;;;;;;;0.05;0.05;;;27.50;83.70;;;;;;5052289;28;20048;-85
2022/07/15 07:27:37;;;;;;;0.03;0.03;;;27.10;83.10;;;;;;5052384;28;20079;-84
2022/07/15 07:30:04;;;;;;;0.00;0.00;;;26.70;81.70;;;;;;5034702;28;20061;-82
2022/07/15 07:32:31;;;;;;;0.15;0.15;;;25.50;84.40;;;;;;5035099;28;20047;-83
2022/07/15 07:34:56;;;;;;;0.10;0.10;;;24.30;86.60;;;;;;5051673;28;20167;-83
2022/07/15 07:37:22;;;;;;;0.00;0.00;;;24.40;90.00;;;;;;5051223;28;20483;-83
2022/07/15 07:39:49;;;;;;;0.10;0.10;;;24.40;88.10;;;;;;5051704;28;20037;-83
2022/07/15 07:42:16;;;;;;;0.00;0.00;;;22.90;87.20;;;;;;5051711;28;20552;-83
2022/07/15 07:44:42;;;;;;;0.10;0.10;;;22.60;87.60;;;;;;5048910;28;20048;-82
2022/07/15 07:47:08;;;;;;;0.10;0.10;;;22.80;90.50;;;;;;5051580;28;20120;-83
2022/07/15 07:49:34;;;;;;;0.08;0.08;;;24.20;90.00;;;;;;5051546;28;20045;-83
2022/07/15 07:52:00;;;;;;;0.03;0.03;;;25.70;86.00;;;;;;5035239;28;20040;-83
2022/07/15 07:54:25;;;;;;;0.00;0.00;;;27.20;83.40;;;;;;5050486;28;20047;-83
2022/07/15 07:56:52;;;;;;;0.05;0.05;;;28.10;79.70;;;;;;5038895;28;20048;-83
2022/07/15 07:59:17;;;;;;;0.00;0.00;;;28.30;79.70;;;;;;5032679;28;20048;-83
2022/07/15 08:01:43;;;;;;;0.15;0.15;;;28.50;79.90;;;;;;5045666;28;20029;-83
2022/07/15 08:04:10;;;;;;;0.10;0.10;;;28.70;78.10;;;;;;5023676;28;20166;-86
2022/07/15 08:06:38;;;;;;;0.00;0.00;;;28.60;79.10;;;;;;5035413;28;20099;-86
2022/07/15 08:09:04;;;;;;;0.10;0.10;;;27.60;77.00;;;;;;5051963;28;20033;-86
2022/07/15 08:11:30;;;;;;;0.10;0.10;;;25.50;77.40;;;;;;5051069;28;20166;-85
2022/07/15 08:13:56;;;;;;;0.00;0.00;;;24.80;80.70;;;;;;5051539;28;20119;-89
2022/07/15 08:16:21;;;;;;;0.98;0.80;;;25.00;81.90;;;;;;5034949;28;20044;-88
2022/07/15 08:18:47;;;;;;;0.00;0.00;;;26.10;80.80;;;;;;5051485;28;20144;-88
2022/07/15 08:21:14;;;;;;;0.10;0.10;;;27.30;80.30;;;;;;5015112;28;20045;-85
2022/07/15 08:23:40;;;;;;;0.00;0.00;;;27.30;79.70;;;;;;5032392;28;20041;-85
2022/07/15 08:26:07;;;;;;;0.20;0.20;;;26.20;79.30;;;;;;5023218;28;20051;-86
2022/07/15 08:28:34;;;;;;;0.05;0.05;;;25.50;80.10;;;;;;5041307;28;20041;-86
2022/07/15 08:30:59;;;;;;;0.28;0.28;;;26.00;80.50;;;;;;5031691;28;20133;-86
2022/07/15 08:33:25;;;;;;;0.00;0.00;;;25.80;78.50;;;;;;5031644;28;20487;-86
2022/07/15 08:35:51;;;;;;;0.03;0.03;;;25.40;79.60;;;;;;5015285;28;20111;-86
2022/07/15 08:38:17;;;;;;;0.00;0.00;;;24.80;80.60;;;;;;5015226;28;20037;-88
2022/07/15 08:40:43;;;;;;;0.00;0.00;;;23.30;82.40;;;;;;5015136;28;20039;-89
2022/07/15 08:43:11;;;;;;;0.10;0.10;;;22.60;83.80;;;;;;5033412;28;20049;-89
2022/07/15 08:45:38;;;;;;;0.10;0.10;;;22.40;84.80;;;;;;5045164;28;20044;-88
2022/07/15 08:48:06;;;;;;;0.00;0.00;;;22.00;86.30;;;;;;5037869;28;20048;-88
2022/07/15 08:50:33;;;;;;;0.10;0.10;;;21.90;88.80;;;;;;5038455;28;20041;-88
2022/07/15 08:52:59;;;;;;;0.10;0.10;;;22.00;88.90;;;;;;5021282;28;20040;-85
2022/07/15 08:55:25;;;;;;;0.00;0.00;;;22.50;87.60;;;;;;5054001;28;20406;-86
2022/07/15 08:57:52;;;;;;;0.05;0.05;;;23.10;86.00;;;;;;5037266;28;20386;-86
2022/07/15 09:00:22;;;;;;;0.00;0.00;;;22.90;86.50;;;;;;5048393;28;20071;-86
2022/07/15 09:02:48;;;;;;;0.00;0.00;;;22.20;87.30;;;;;;5046550;28;20033;-86
2022/07/15 09:05:30;;;;;;;0.00;0.00;;;22.30;89.60;;;;;;5033803;28;20476;-85
2022/07/15 09:08:07;;;;;;;0.00;0.00;;;22.90;88.40;;;;;;5053964;28;20041;-86
2022/07/15 09:10:54;;;;;;;0.00;0.00;;;23.80;87.00;;;;;;5037424;28;20048;-86
2022/07/15 09:13:39;;;;;;;0.38;0.20;;;23.60;85.00;;;;;;5054154;28;20115;-86
2022/07/15 09:16:19;;;;;;;0.00;0.00;;;23.10;85.40;;;;;;5053677;28;20037;-86
2022/07/15 09:18:46;;;;;;;0.00;0.00;;;22.60;87.00;;;;;;5037021;28;20444;-85
2022/07/15 09:21:23;;;;;;;0.10;0.10;;;21.60;87.80;;;;;;5037325;28;20036;-86
2022/07/15 09:23:50;;;;;;;0.00;0.00;;;21.40;88.30;;;;;;5053785;28;20041;-86
2022/07/15 09:26:32;;;;;;;0.03;0.03;;;24.40;86.10;;;;;;5053341;28;20504;-86
2022/07/15 09:28:59;;;;;;;0.00;0.00;;;24.50;85.00;;;;;;5064142;22;20055;-88
2022/07/15 09:34:18;;;;;;;0.10;0.10;;;24.40;82.10;;;;;;5074214;28;20395;-88
2022/07/15 09:36:50;;;;;;;0.00;0.00;;;23.60;84.00;;;;;;5073269;28;20042;-89
2022/07/15 09:39:16;;;;;;;0.10;0.10;;;23.00;87.10;;;;;;5074046;28;20097;-89
2022/07/15 09:41:44;;;;;;;0.00;0.00;;;22.40;86.70;;;;;;5074004;28;20124;-89
2022/07/15 09:44:21;;;;;;;0.10;0.10;;;22.00;87.30;;;;;;5057072;28;20052;-89
2022/07/15 09:46:50;;;;;;;0.00;0.00;;;21.70;88.40;;;;;;5053189;28;20033;-88
2022/07/15 09:49:23;;;;;;;0.00;0.00;;;22.20;89.70;;;;;;5056934;28;20044;-88
2022/07/15 09:51:54;;;;;;;0.00;0.00;;;23.20;88.90;;;;;;5073698;28;20037;-88
2022/07/15 09:54:21;;;;;;;0.10;0.10;;;25.20;85.10;;;;;;5056131;28;20517;-88
2022/07/15 09:56:48;;;;;;;0.00;0.00;;;28.40;80.00;;;;;;5062610;28;20111;-89
2022/07/15 09:59:15;;;;;;;0.00;0.00;;;29.10;77.90;;;;;;5073420;28;20600;-88
2022/07/15 10:01:42;;;;;;;0.10;0.10;;;30.40;77.10;;;;;;5072533;28;20045;-85
2022/07/15 10:04:09;;;;;;;0.00;0.00;;;30.50;76.00;;;;;;5073423;28;20040;-86
2022/07/15 10:06:38;;;;;;;0.00;0.00;;;31.10;76.10;;;;;;5073817;28;20428;-86
2022/07/15 10:09:06;;;;;;;0.10;0.10;;;31.60;73.70;;;;;;5066341;28;20550;-85
2022/07/15 10:11:36;;;;;;;0.00;0.00;;;30.40;72.10;;;;;;5072009;28;20044;-84
2022/07/15 10:14:13;;;;;;;0.00;0.00;;;29.60;71.90;;;;;;5051317;28;20032;-85
2022/07/15 10:16:58;;;;;;;0.00;0.00;;;30.30;72.90;;;;;;5068694;28;20033;-84
2022/07/15 10:19:38;;;;;;;0.00;0.00;;;28.80;72.00;;;;;;5072724;28;20033;-84
2022/07/15 10:22:42;;;;;;;0.20;0.20;;;27.90;73.60;;;;;;5045312;28;20111;-84
2022/07/15 10:25:15;;;;;;;0.00;0.00;;;27.40;74.00;;;;;;5062435;28;20040;-84
2022/07/15 10:28:05;;;;;;;0.00;0.00;;;26.30;74.30;;;;;;5064233;28;20044;-84
2022/07/15 10:30:31;;;;;;;0.00;0.00;;;26.50;77.20;;;;;;5046856;28;20068;-84
2022/07/15 10:33:03;;;;;;;0.10;0.10;;;26.30;74.80;;;;;;5046083;28;20083;-84
2022/07/15 10:35:45;;;;;;;0.10;0.10;;;25.90;75.80;;;;;;5060375;28;20433;-83
2022/07/15 10:38:31;;;;;;;0.00;0.00;;;25.00;76.70;;;;;;5069756;28;20039;-84
2022/07/15 10:41:03;;;;;;;0.20;0.20;;;24.60;78.10;;;;;;5055387;28;20552;-84
2022/07/15 10:43:49;;;;;;;0.45;0.35;;;24.80;79.50;;;;;;5071696;28;20371;-84
2022/07/15 10:46:20;;;;;;;0.20;0.20;;;25.00;79.40;;;;;;5059785;28;20119;-84
2022/07/15 10:48:50;;;;;;;0.57;0.40;;;25.10;78.90;;;;;;5055949;28;20131;-83
2022/07/15 10:51:36;;;;;;;0.10;0.10;;;24.70;79.80;;;;;;5055961;28;20482;-85
2022/07/15 10:54:17;;;;;;;0.17;0.17;;;25.30;80.60;;;;;;5072408;28;20043;-84
2022/07/15 10:56:45;;;;;;;0.00;0.00;;;25.40;77.90;;;;;;5081694;28;20048;-83
2022/07/15 10:59:20;;;;;;;0.00;0.00;;;25.30;76.90;;;;;;5072198;28;20481;-84
2022/07/15 11:01:50;;;;;;;0.00;0.00;;;25.10;78.00;;;;;;5068388;28;20033;-85
2022/07/15 11:04:17;;;;;;;0.03;0.03;;;24.90;79.30;;;;;;5041469;28;20078;-84
2022/07/15 11:07:02;;;;;;;0.20;0.20;;;24.60;79.10;;;;;;5051975;28;20686;-83
2022/07/15 11:09:54;;;;;;;0.00;0.00;;;24.30;80.00;;;;;;5052965;28;20047;-84
2022/07/15 11:12:32;;;;;;;1.45;0.47;;;24.50;81.00;;;;;;5069101;28;20533;-84
2022/07/15 11:15:10;;;;;;;0.52;0.20;;;24.60;80.70;;;;;;5072986;28;20359;-83
2022/07/15 11:17:41;;;;;;;0.00;0.00;;;24.60;80.70;;;;;;5055213;28;20107;-84
2022/07/15 11:20:12;;;;;;;0.00;0.00;;;24.10;80.70;;;;;;5055244;28;20550;-84
2022/07/15 11:22:44;;;;;;;0.00;0.00;;;22.50;82.60;;;;;;5070958;28;20055;-83
2022/07/15 11:25:38;;;;;;;0.70;0.20;;;22.00;84.50;;;;;;5071952;28;20048;-84
2022/07/15 11:28:16;;;;;;;0.10;0.10;;;21.90;84.90;;;;;;5072052;28;20041;-85
2022/07/15 11:30:49;;;;;;;0.10;0.10;;;21.70;87.00;;;;;;5072231;28;20388;-84
2022/07/15 11:33:17;;;;;;;0.00;0.00;;;22.90;87.80;;;;;;5070728;28;20052;-85
2022/07/15 11:35:52;;;;;;;0.00;0.00;;;23.90;84.00;;;;;;5052433;28;20390;-84
2022/07/15 11:38:22;;;;;;;0.10;0.10;;;24.10;82.70;;;;;;5072081;28;20041;-85
2022/07/15 11:46:22;;;;;;;0.10;0.10;;;26.70;80.60;;;;;;5051648;28;20060;-84
2022/07/15 11:48:49;;;;;;;0.00;0.00;;;27.50;79.10;;;;;;5051901;28;20092;-84
2022/07/15 11:51:15;;;;;;;1.35;0.65;;;;;;;;;;5052074;28;20080;-84
2022/07/15 11:53:47;;;;;;;0.30;0.30;;;27.10;76.80;;;;;;5068920;28;20041;-84
2022/07/15 11:56:14;;;;;;;0.00;0.00;;;26.20;78.50;;;;;;5069221;28;20090;-84
2022/07/15 11:58:45;;;;;;;0.00;0.00;;;25.20;79.30;;;;;;5072164;28;20052;-85
2022/07/15 12:01:14;;;;;;;0.05;0.05;;;23.20;82.70;;;;;;5070977;28;20132;-85
2022/07/15 12:03:50;;;;;;;0.10;0.10;;;23.10;83.10;;;;;;5072071;28;20131;-85
2022/07/15 12:06:28;;;;;;;0.10;0.10;;;22.50;85.70;;;;;;5054823;28;20139;-84
2022/07/15 12:08:59;;;;;;;0.00;0.00;;;21.90;88.20;;;;;;5063974;28;20119;-85
2022/07/15 12:11:30;;;;;;;0.35;0.28;;;;;;;;;;5070923;28;20044;-84
2022/07/15 12:14:09;;;;;;;0.88;0.20;;;21.80;88.20;;;;;;5054202;28;20375;-84
2022/07/15 12:16:40;;;;;;;0.00;0.00;;;23.00;88.10;;;;;;5062128;28;20045;-84
2022/07/15 12:19:09;;;;;;;0.00;0.00;;;23.40;84.30;;;;;;5038865;28;20384;-84
2022/07/15 12:21:36;;;;;;;0.00;0.00;;;23.30;84.10;;;;;;5055222;28;20045;-84
2022/07/15 12:24:09;;;;;;;0.03;0.03;;;22.90;85.40;;;;;;5055338;28;20044;-84
2022/07/15 12:26:41;;;;;;;0.00;0.00;;;22.70;86.90;;;;;;5061748;28;20101;-83
2022/07/15 12:29:09;;;;;;;0.00;0.00;;;22.30;87.30;;;;;;5075191;28;20121;-84
2022/07/15 12:31:37;;;;;;;0.00;0.00;;;21.90;88.50;;;;;;5059030;28;20048;-85
2022/07/15 12:34:04;;;;;;;0.22;0.20;;;21.70;89.80;;;;;;5058744;28;20052;-85
2022/07/15 12:36:33;;;;;;;0.30;0.30;;;21.60;90.40;;;;;;5074466;28;20429;-84
2022/07/15 12:39:04;;;;;;;0.00;0.00;;;21.50;90.40;;;;;;5070325;28;20043;-85
2022/07/15 12:41:30;;;;;;;0.10;0.10;;;21.90;91.30;;;;;;5054986;28;20041;-85
2022/07/15 12:43:58;;;;;;;0.00;0.00;;;22.40;90.10;;;;;;5055365;28;20040;-85
2022/07/15 12:46:53;;;;;;;0.00;0.00;;;22.70;89.70;;;;;;5055213;28;20391;-84
2022/07/15 12:49:41;;;;;;;0.00;0.00;;;22.90;89.10;;;;;;5048964;28;20056;-83
2022/07/15 12:52:24;;;;;;;0.30;0.30;;;23.10;89.10;;;;;;5055515;28;20056;-84
2022/07/15 12:54:54;;;;;;;0.00;0.00;;;23.10;89.30;;;;;;5055093;28;20122;-83
2022/07/15 12:57:35;;;;;;;0.00;0.00;;;22.80;88.80;;;;;;5043820;28;20505;-84
2022/07/15 13:00:22;;;;;;;0.00;0.00;;;22.50;89.60;;;;;;5057388;28;20032;-84
2022/07/15 13:02:57;;;;;;;0.38;0.20;;;22.30;89.70;;;;;;5055194;28;20391;-84
2022/07/15 13:05:23;;;;;;;0.03;0.03;;;22.40;90.50;;;;;;5066185;28;20128;-84
2022/07/15 13:07:48;;;;;;;0.10;0.10;;;22.60;90.40;;;;;;5073013;28;20037;-84
2022/07/15 13:10:14;;;;;;;0.03;0.03;;;22.80;89.20;;;;;;5050579;28;20044;-84